Ana Sayfa
METAR-TAF:

METAR-TAF

Havaalanları :

Mount Pleasant Regional Airport

Mount Pleasant, Teksas, Amerika Birleşik Devletleri

Enlem: 33-05-43N, Boylam: 094-57-41W, yükseklik: 111 m

Güncel hava durumu gözlemi

Rapor saat 09:15 UTC de 30 dakika önce yapıldı.
Rüzgar güneydoğudan 5 kt
Sıcaklık 24°C
Nem 100%
Basınç 1008 hPa
Görüş mesafesi: 11.3 km
2400 ft yükseklikte parçalı bulutlu
2900 ft yükseklikte parçalı çok bulutlu
8500 ft yükseklikte parçalı çok bulutlu

METAR: KOSA 240915Z AUTO 14005KT 7SM SCT024 BKN029 BKN085 24/24 A2977 RMK AO2 T0238////

Saat: 04:45 (09:45 UTC)


TAF: eksik

4.000'den fazla havaalanı için hava durumu gözlemleri ve tahminleri (METAR ve TAF raporları).

Kullanılabilir istasyonlar harita üzerinde sarı ve kırmızı noktalarla gösterilir.

İstasyonun adını görmek için fareyi noktanın üzerinde gezdirin.

Sonrasında hava gözlem ve tahminlerini görmek için tıklayın.

Haritayı değiştirmek için: yaklaştırmak için siyah artı işaretli yeşil düğmeye ve uzaklaştırmak için de eksi işaretli düğmeye hızla tıklayın; bitişik haritalar için yeşil okları kullanın.


METAR-TAF: